sensor_id;sensor_type;location;lat;lon;timestamp;temperature;humidity
10344;DHT22;5217;43.960;10.954;2023-07-20T00:00:38;28.60;97.90
10344;DHT22;5217;43.960;10.954;2023-07-20T00:03:15;28.60;97.90
10344;DHT22;5217;43.960;10.954;2023-07-20T00:05:46;28.60;98.40
10344;DHT22;5217;43.960;10.954;2023-07-20T00:08:15;28.60;98.20
10344;DHT22;5217;43.960;10.954;2023-07-20T00:10:45;28.50;98.30
10344;DHT22;5217;43.960;10.954;2023-07-20T00:13:14;28.50;98.30
10344;DHT22;5217;43.960;10.954;2023-07-20T00:15:43;28.60;98.50
10344;DHT22;5217;43.960;10.954;2023-07-20T00:18:11;28.50;98.50
10344;DHT22;5217;43.960;10.954;2023-07-20T00:20:40;28.50;98.50
10344;DHT22;5217;43.960;10.954;2023-07-20T00:23:08;28.50;98.60
10344;DHT22;5217;43.960;10.954;2023-07-20T00:25:37;28.50;98.60
10344;DHT22;5217;43.960;10.954;2023-07-20T00:28:07;28.50;98.80
10344;DHT22;5217;43.960;10.954;2023-07-20T00:30:35;28.50;98.80
10344;DHT22;5217;43.960;10.954;2023-07-20T00:33:09;28.50;98.90
10344;DHT22;5217;43.960;10.954;2023-07-20T00:35:38;28.50;98.90
10344;DHT22;5217;43.960;10.954;2023-07-20T00:38:06;28.50;98.90
10344;DHT22;5217;43.960;10.954;2023-07-20T00:40:40;28.50;98.90
10344;DHT22;5217;43.960;10.954;2023-07-20T00:43:13;28.50;99.20
10344;DHT22;5217;43.960;10.954;2023-07-20T00:45:42;28.50;99.30
10344;DHT22;5217;43.960;10.954;2023-07-20T00:48:11;28.50;99.30
10344;DHT22;5217;43.960;10.954;2023-07-20T00:50:40;28.50;99.30
10344;DHT22;5217;43.960;10.954;2023-07-20T00:53:09;28.50;99.40
10344;DHT22;5217;43.960;10.954;2023-07-20T00:55:38;28.50;99.70
10344;DHT22;5217;43.960;10.954;2023-07-20T00:58:06;28.50;99.80
10344;DHT22;5217;43.960;10.954;2023-07-20T01:00:36;28.50;99.90
10344;DHT22;5217;43.960;10.954;2023-07-20T01:03:05;28.50;99.90
10344;DHT22;5217;43.960;10.954;2023-07-20T01:05:40;28.50;99.90
10344;DHT22;5217;43.960;10.954;2023-07-20T01:08:14;28.50;99.90
10344;DHT22;5217;43.960;10.954;2023-07-20T01:10:47;28.50;99.90
10344;DHT22;5217;43.960;10.954;2023-07-20T01:13:20;28.40;99.90
10344;DHT22;5217;43.960;10.954;2023-07-20T01:15:56;28.40;99.90
10344;DHT22;5217;43.960;10.954;2023-07-20T01:18:25;28.40;99.90
10344;DHT22;5217;43.960;10.954;2023-07-20T01:20:58;28.50;99.90
10344;DHT22;5217;43.960;10.954;2023-07-20T01:24:00;28.50;99.90
10344;DHT22;5217;43.960;10.954;2023-07-20T01:26:45;28.40;99.90
10344;DHT22;5217;43.960;10.954;2023-07-20T01:29:26;28.40;99.90
10344;DHT22;5217;43.960;10.954;2023-07-20T01:32:04;28.50;99.90
10344;DHT22;5217;43.960;10.954;2023-07-20T01:34:35;28.40;99.90
10344;DHT22;5217;43.960;10.954;2023-07-20T01:37:05;28.40;99.90
10344;DHT22;5217;43.960;10.954;2023-07-20T01:39:36;28.40;99.90
10344;DHT22;5217;43.960;10.954;2023-07-20T01:42:05;28.50;99.90
10344;DHT22;5217;43.960;10.954;2023-07-20T01:44:34;28.50;99.90
10344;DHT22;5217;43.960;10.954;2023-07-20T01:47:05;28.50;99.90
10344;DHT22;5217;43.960;10.954;2023-07-20T01:49:33;28.40;99.90
10344;DHT22;5217;43.960;10.954;2023-07-20T01:52:02;28.40;99.90
10344;DHT22;5217;43.960;10.954;2023-07-20T01:54:31;28.50;99.90
10344;DHT22;5217;43.960;10.954;2023-07-20T01:57:00;28.40;99.90
10344;DHT22;5217;43.960;10.954;2023-07-20T01:59:28;28.40;99.90
10344;DHT22;5217;43.960;10.954;2023-07-20T02:01:57;28.40;99.90
10344;DHT22;5217;43.960;10.954;2023-07-20T02:04:27;28.40;99.90
10344;DHT22;5217;43.960;10.954;2023-07-20T02:06:55;28.40;99.90
10344;DHT22;5217;43.960;10.954;2023-07-20T02:09:24;28.40;99.90
10344;DHT22;5217;43.960;10.954;2023-07-20T02:11:53;28.40;99.90
10344;DHT22;5217;43.960;10.954;2023-07-20T02:14:21;28.40;99.90
10344;DHT22;5217;43.960;10.954;2023-07-20T02:16:50;28.30;99.90
10344;DHT22;5217;43.960;10.954;2023-07-20T02:19:20;28.30;99.90
10344;DHT22;5217;43.960;10.954;2023-07-20T02:21:50;28.30;99.90
10344;DHT22;5217;43.960;10.954;2023-07-20T02:24:19;28.30;99.90
10344;DHT22;5217;43.960;10.954;2023-07-20T02:26:47;28.30;99.90
10344;DHT22;5217;43.960;10.954;2023-07-20T02:29:16;28.20;99.90
10344;DHT22;5217;43.960;10.954;2023-07-20T02:31:44;28.20;99.90
10344;DHT22;5217;43.960;10.954;2023-07-20T02:34:13;28.20;99.90
10344;DHT22;5217;43.960;10.954;2023-07-20T02:36:42;28.20;99.90
10344;DHT22;5217;43.960;10.954;2023-07-20T02:39:12;28.10;99.90
10344;DHT22;5217;43.960;10.954;2023-07-20T02:41:42;28.10;99.90
10344;DHT22;5217;43.960;10.954;2023-07-20T02:44:11;28.10;99.90
10344;DHT22;5217;43.960;10.954;2023-07-20T02:46:39;28.10;99.90
10344;DHT22;5217;43.960;10.954;2023-07-20T02:49:08;28.10;99.90
10344;DHT22;5217;43.960;10.954;2023-07-20T02:51:36;28.10;99.90
10344;DHT22;5217;43.960;10.954;2023-07-20T02:54:05;28.10;99.90
10344;DHT22;5217;43.960;10.954;2023-07-20T02:56:35;28.10;99.90
10344;DHT22;5217;43.960;10.954;2023-07-20T02:59:04;28.00;99.90
10344;DHT22;5217;43.960;10.954;2023-07-20T03:01:32;28.00;99.90
10344;DHT22;5217;43.960;10.954;2023-07-20T03:04:01;28.00;99.90
10344;DHT22;5217;43.960;10.954;2023-07-20T03:06:31;28.00;99.90
10344;DHT22;5217;43.960;10.954;2023-07-20T03:09:03;28.00;99.90
10344;DHT22;5217;43.960;10.954;2023-07-20T03:11:35;28.00;99.90
10344;DHT22;5217;43.960;10.954;2023-07-20T03:14:03;28.00;99.90
10344;DHT22;5217;43.960;10.954;2023-07-20T03:16:31;28.00;99.90
10344;DHT22;5217;43.960;10.954;2023-07-20T03:19:00;28.00;99.90
10344;DHT22;5217;43.960;10.954;2023-07-20T03:21:28;28.00;99.90
10344;DHT22;5217;43.960;10.954;2023-07-20T03:23:57;28.00;99.90
10344;DHT22;5217;43.960;10.954;2023-07-20T03:26:25;27.90;99.90
10344;DHT22;5217;43.960;10.954;2023-07-20T03:28:55;28.00;99.90
10344;DHT22;5217;43.960;10.954;2023-07-20T03:31:23;28.00;99.90
10344;DHT22;5217;43.960;10.954;2023-07-20T03:33:52;27.90;99.90
10344;DHT22;5217;43.960;10.954;2023-07-20T03:36:20;27.90;99.90
10344;DHT22;5217;43.960;10.954;2023-07-20T03:38:49;27.90;99.90
10344;DHT22;5217;43.960;10.954;2023-07-20T03:41:18;28.00;99.90
10344;DHT22;5217;43.960;10.954;2023-07-20T03:43:47;27.90;99.90
10344;DHT22;5217;43.960;10.954;2023-07-20T03:46:17;27.90;99.90
10344;DHT22;5217;43.960;10.954;2023-07-20T03:48:45;27.90;99.90
10344;DHT22;5217;43.960;10.954;2023-07-20T03:51:14;27.80;99.90
10344;DHT22;5217;43.960;10.954;2023-07-20T03:53:42;27.80;99.90
10344;DHT22;5217;43.960;10.954;2023-07-20T03:56:10;27.80;99.90
10344;DHT22;5217;43.960;10.954;2023-07-20T03:58:39;27.80;99.90
10344;DHT22;5217;43.960;10.954;2023-07-20T04:01:07;27.80;99.90
10344;DHT22;5217;43.960;10.954;2023-07-20T04:03:38;27.80;99.90
10344;DHT22;5217;43.960;10.954;2023-07-20T04:06:06;27.80;99.90
10344;DHT22;5217;43.960;10.954;2023-07-20T04:08:35;27.80;99.90
10344;DHT22;5217;43.960;10.954;2023-07-20T04:11:04;27.80;99.90
10344;DHT22;5217;43.960;10.954;2023-07-20T04:13:32;27.90;99.90
10344;DHT22;5217;43.960;10.954;2023-07-20T04:16:01;27.80;99.90
10344;DHT22;5217;43.960;10.954;2023-07-20T04:18:30;27.80;99.90
10344;DHT22;5217;43.960;10.954;2023-07-20T04:20:59;27.80;99.90
10344;DHT22;5217;43.960;10.954;2023-07-20T04:23:28;27.80;99.90
10344;DHT22;5217;43.960;10.954;2023-07-20T04:25:56;27.70;99.90
10344;DHT22;5217;43.960;10.954;2023-07-20T04:28:25;27.70;99.90
10344;DHT22;5217;43.960;10.954;2023-07-20T04:30:53;27.70;99.90
10344;DHT22;5217;43.960;10.954;2023-07-20T04:33:21;27.70;99.90
10344;DHT22;5217;43.960;10.954;2023-07-20T04:35:51;27.70;99.90
10344;DHT22;5217;43.960;10.954;2023-07-20T04:38:21;27.70;99.90
10344;DHT22;5217;43.960;10.954;2023-07-20T04:40:50;27.70;99.90
10344;DHT22;5217;43.960;10.954;2023-07-20T04:43:19;27.70;99.90
10344;DHT22;5217;43.960;10.954;2023-07-20T04:45:47;27.70;99.90
10344;DHT22;5217;43.960;10.954;2023-07-20T04:48:17;27.70;99.90
10344;DHT22;5217;43.960;10.954;2023-07-20T04:50:46;27.70;99.90
10344;DHT22;5217;43.960;10.954;2023-07-20T04:53:14;27.70;99.90
10344;DHT22;5217;43.960;10.954;2023-07-20T04:55:49;27.70;99.90
10344;DHT22;5217;43.960;10.954;2023-07-20T04:58:19;27.70;99.90
10344;DHT22;5217;43.960;10.954;2023-07-20T05:00:48;27.70;99.90
10344;DHT22;5217;43.960;10.954;2023-07-20T05:03:16;27.70;99.90
10344;DHT22;5217;43.960;10.954;2023-07-20T05:05:46;27.70;99.90
10344;DHT22;5217;43.960;10.954;2023-07-20T05:08:16;27.70;99.90
10344;DHT22;5217;43.960;10.954;2023-07-20T05:10:45;27.70;99.90
10344;DHT22;5217;43.960;10.954;2023-07-20T05:13:14;27.70;99.90
10344;DHT22;5217;43.960;10.954;2023-07-20T05:15:43;27.80;99.90
10344;DHT22;5217;43.960;10.954;2023-07-20T05:18:11;27.70;99.90
10344;DHT22;5217;43.960;10.954;2023-07-20T05:20:39;27.80;99.90
10344;DHT22;5217;43.960;10.954;2023-07-20T05:23:08;27.70;99.90
10344;DHT22;5217;43.960;10.954;2023-07-20T05:25:36;27.70;99.90
10344;DHT22;5217;43.960;10.954;2023-07-20T05:28:05;27.80;99.90
10344;DHT22;5217;43.960;10.954;2023-07-20T05:30:34;27.80;99.90
10344;DHT22;5217;43.960;10.954;2023-07-20T05:33:03;27.70;99.90
10344;DHT22;5217;43.960;10.954;2023-07-20T05:35:32;27.80;99.90
10344;DHT22;5217;43.960;10.954;2023-07-20T05:38:00;27.80;99.90
10344;DHT22;5217;43.960;10.954;2023-07-20T05:40:28;27.70;99.90
10344;DHT22;5217;43.960;10.954;2023-07-20T05:42:57;27.80;99.90
10344;DHT22;5217;43.960;10.954;2023-07-20T05:45:28;27.80;99.90
10344;DHT22;5217;43.960;10.954;2023-07-20T05:47:58;27.80;99.90
10344;DHT22;5217;43.960;10.954;2023-07-20T05:50:27;27.80;99.90
10344;DHT22;5217;43.960;10.954;2023-07-20T05:52:56;27.80;99.90
10344;DHT22;5217;43.960;10.954;2023-07-20T05:55:24;27.80;99.90
10344;DHT22;5217;43.960;10.954;2023-07-20T05:57:53;27.80;99.90
10344;DHT22;5217;43.960;10.954;2023-07-20T06:00:23;27.80;99.90
10344;DHT22;5217;43.960;10.954;2023-07-20T06:02:53;27.80;99.90
10344;DHT22;5217;43.960;10.954;2023-07-20T06:05:24;27.80;99.90
10344;DHT22;5217;43.960;10.954;2023-07-20T06:07:55;27.80;99.90
10344;DHT22;5217;43.960;10.954;2023-07-20T06:10:25;27.80;99.90
10344;DHT22;5217;43.960;10.954;2023-07-20T06:12:53;27.80;99.90
10344;DHT22;5217;43.960;10.954;2023-07-20T06:15:27;27.80;99.90
10344;DHT22;5217;43.960;10.954;2023-07-20T06:17:55;27.80;99.90
10344;DHT22;5217;43.960;10.954;2023-07-20T06:20:27;27.80;99.90
10344;DHT22;5217;43.960;10.954;2023-07-20T06:22:56;27.90;99.90
10344;DHT22;5217;43.960;10.954;2023-07-20T06:25:24;27.90;99.90
10344;DHT22;5217;43.960;10.954;2023-07-20T06:27:55;27.90;99.90
10344;DHT22;5217;43.960;10.954;2023-07-20T06:30:24;27.90;99.90
10344;DHT22;5217;43.960;10.954;2023-07-20T06:32:53;27.90;99.90
10344;DHT22;5217;43.960;10.954;2023-07-20T06:35:21;28.00;99.90
10344;DHT22;5217;43.960;10.954;2023-07-20T06:37:51;28.00;99.90
10344;DHT22;5217;43.960;10.954;2023-07-20T06:40:20;28.00;99.90
10344;DHT22;5217;43.960;10.954;2023-07-20T06:42:51;28.00;99.90
10344;DHT22;5217;43.960;10.954;2023-07-20T06:45:23;28.00;99.90
10344;DHT22;5217;43.960;10.954;2023-07-20T06:47:51;28.00;99.90
10344;DHT22;5217;43.960;10.954;2023-07-20T06:50:19;28.00;99.90
10344;DHT22;5217;43.960;10.954;2023-07-20T06:52:54;28.00;99.90
10344;DHT22;5217;43.960;10.954;2023-07-20T06:55:25;28.00;99.90
10344;DHT22;5217;43.960;10.954;2023-07-20T06:57:58;28.10;99.90
10344;DHT22;5217;43.960;10.954;2023-07-20T07:00:26;28.10;99.90
10344;DHT22;5217;43.960;10.954;2023-07-20T07:02:55;28.10;99.90
10344;DHT22;5217;43.960;10.954;2023-07-20T07:05:23;28.10;99.90
10344;DHT22;5217;43.960;10.954;2023-07-20T07:08:04;28.10;99.90
10344;DHT22;5217;43.960;10.954;2023-07-20T07:10:34;28.20;99.90
10344;DHT22;5217;43.960;10.954;2023-07-20T07:13:03;28.20;99.90
10344;DHT22;5217;43.960;10.954;2023-07-20T07:15:32;28.20;99.90
10344;DHT22;5217;43.960;10.954;2023-07-20T07:18:00;28.10;99.90
10344;DHT22;5217;43.960;10.954;2023-07-20T07:20:30;28.20;99.90
10344;DHT22;5217;43.960;10.954;2023-07-20T07:22:59;28.20;99.90
10344;DHT22;5217;43.960;10.954;2023-07-20T07:25:29;28.20;99.90
10344;DHT22;5217;43.960;10.954;2023-07-20T07:27:59;28.20;99.90
10344;DHT22;5217;43.960;10.954;2023-07-20T07:30:27;28.20;99.90
10344;DHT22;5217;43.960;10.954;2023-07-20T07:32:57;28.20;99.90
10344;DHT22;5217;43.960;10.954;2023-07-20T07:35:26;28.20;99.90
10344;DHT22;5217;43.960;10.954;2023-07-20T07:37:54;28.30;99.90
10344;DHT22;5217;43.960;10.954;2023-07-20T07:40:41;28.30;99.90
10344;DHT22;5217;43.960;10.954;2023-07-20T07:43:10;28.30;99.90
10344;DHT22;5217;43.960;10.954;2023-07-20T07:45:40;28.30;99.90
10344;DHT22;5217;43.960;10.954;2023-07-20T07:48:09;28.30;99.90
10344;DHT22;5217;43.960;10.954;2023-07-20T07:50:38;28.30;99.90
10344;DHT22;5217;43.960;10.954;2023-07-20T07:53:07;28.40;99.90
10344;DHT22;5217;43.960;10.954;2023-07-20T07:55:36;28.40;99.90
10344;DHT22;5217;43.960;10.954;2023-07-20T07:58:06;28.40;99.90
10344;DHT22;5217;43.960;10.954;2023-07-20T08:00:35;28.40;99.90
10344;DHT22;5217;43.960;10.954;2023-07-20T08:03:03;28.40;99.90
10344;DHT22;5217;43.960;10.954;2023-07-20T08:05:32;28.40;99.90
10344;DHT22;5217;43.960;10.954;2023-07-20T08:08:02;28.40;99.90
10344;DHT22;5217;43.960;10.954;2023-07-20T08:10:30;28.40;99.90
10344;DHT22;5217;43.960;10.954;2023-07-20T08:12:59;28.40;99.90
10344;DHT22;5217;43.960;10.954;2023-07-20T08:15:29;28.50;99.90
10344;DHT22;5217;43.960;10.954;2023-07-20T08:17:57;28.50;99.90
10344;DHT22;5217;43.960;10.954;2023-07-20T08:20:26;28.50;99.90
10344;DHT22;5217;43.960;10.954;2023-07-20T08:22:55;28.50;99.90
10344;DHT22;5217;43.960;10.954;2023-07-20T08:25:25;28.50;99.90
10344;DHT22;5217;43.960;10.954;2023-07-20T08:27:53;28.50;99.90
10344;DHT22;5217;43.960;10.954;2023-07-20T08:30:22;28.60;99.90
10344;DHT22;5217;43.960;10.954;2023-07-20T08:32:53;28.60;99.90
10344;DHT22;5217;43.960;10.954;2023-07-20T08:35:21;28.60;99.90
10344;DHT22;5217;43.960;10.954;2023-07-20T08:37:50;28.60;99.90
10344;DHT22;5217;43.960;10.954;2023-07-20T08:40:18;28.60;99.90
10344;DHT22;5217;43.960;10.954;2023-07-20T08:42:47;28.60;99.90
10344;DHT22;5217;43.960;10.954;2023-07-20T08:45:19;28.70;99.90
10344;DHT22;5217;43.960;10.954;2023-07-20T08:47:48;28.70;99.90
10344;DHT22;5217;43.960;10.954;2023-07-20T08:50:20;28.70;99.90
10344;DHT22;5217;43.960;10.954;2023-07-20T08:52:50;28.70;99.90
10344;DHT22;5217;43.960;10.954;2023-07-20T08:55:21;28.70;99.90
10344;DHT22;5217;43.960;10.954;2023-07-20T08:57:50;28.70;99.90
10344;DHT22;5217;43.960;10.954;2023-07-20T09:00:21;28.70;99.90
10344;DHT22;5217;43.960;10.954;2023-07-20T09:02:53;28.70;99.90
10344;DHT22;5217;43.960;10.954;2023-07-20T09:05:24;28.80;99.90
10344;DHT22;5217;43.960;10.954;2023-07-20T09:07:53;28.80;99.90
10344;DHT22;5217;43.960;10.954;2023-07-20T09:10:23;28.80;99.90
10344;DHT22;5217;43.960;10.954;2023-07-20T09:12:51;28.80;99.90
10344;DHT22;5217;43.960;10.954;2023-07-20T09:15:20;28.80;99.90
10344;DHT22;5217;43.960;10.954;2023-07-20T09:17:49;28.90;99.90
10344;DHT22;5217;43.960;10.954;2023-07-20T09:20:19;28.80;99.90
10344;DHT22;5217;43.960;10.954;2023-07-20T09:22:51;28.80;99.90
10344;DHT22;5217;43.960;10.954;2023-07-20T09:25:22;28.90;99.90
10344;DHT22;5217;43.960;10.954;2023-07-20T09:27:55;28.90;99.90
10344;DHT22;5217;43.960;10.954;2023-07-20T09:30:26;28.90;99.90
10344;DHT22;5217;43.960;10.954;2023-07-20T09:32:57;28.90;99.90
10344;DHT22;5217;43.960;10.954;2023-07-20T09:35:26;29.00;99.90
10344;DHT22;5217;43.960;10.954;2023-07-20T09:38:09;29.00;99.90
10344;DHT22;5217;43.960;10.954;2023-07-20T09:40:41;29.00;99.90
10344;DHT22;5217;43.960;10.954;2023-07-20T09:43:13;29.00;99.90
10344;DHT22;5217;43.960;10.954;2023-07-20T09:45:47;29.00;99.90
10344;DHT22;5217;43.960;10.954;2023-07-20T09:48:23;29.10;99.90
10344;DHT22;5217;43.960;10.954;2023-07-20T09:50:55;29.20;99.90
10344;DHT22;5217;43.960;10.954;2023-07-20T09:53:26;29.10;99.90
10344;DHT22;5217;43.960;10.954;2023-07-20T09:55:55;29.10;99.90
10344;DHT22;5217;43.960;10.954;2023-07-20T09:58:26;29.20;99.90
10344;DHT22;5217;43.960;10.954;2023-07-20T10:00:57;29.20;99.90
10344;DHT22;5217;43.960;10.954;2023-07-20T10:03:29;29.20;99.90
10344;DHT22;5217;43.960;10.954;2023-07-20T10:06:04;29.20;99.90
10344;DHT22;5217;43.960;10.954;2023-07-20T10:08:39;29.20;99.90
10344;DHT22;5217;43.960;10.954;2023-07-20T10:11:12;29.20;99.90
10344;DHT22;5217;43.960;10.954;2023-07-20T10:13:44;29.20;99.90
10344;DHT22;5217;43.960;10.954;2023-07-20T10:16:20;29.30;99.90
10344;DHT22;5217;43.960;10.954;2023-07-20T10:18:54;29.30;99.90
10344;DHT22;5217;43.960;10.954;2023-07-20T10:21:29;29.30;99.90
10344;DHT22;5217;43.960;10.954;2023-07-20T10:24:03;29.30;99.90
10344;DHT22;5217;43.960;10.954;2023-07-20T10:26:32;29.40;99.90
10344;DHT22;5217;43.960;10.954;2023-07-20T10:29:04;29.40;99.90
10344;DHT22;5217;43.960;10.954;2023-07-20T10:31:33;29.40;99.90
10344;DHT22;5217;43.960;10.954;2023-07-20T10:34:02;29.40;99.90
10344;DHT22;5217;43.960;10.954;2023-07-20T10:36:31;29.40;99.90
10344;DHT22;5217;43.960;10.954;2023-07-20T10:38:59;29.40;99.90
10344;DHT22;5217;43.960;10.954;2023-07-20T10:41:33;29.40;99.90
10344;DHT22;5217;43.960;10.954;2023-07-20T10:44:02;29.50;99.90
10344;DHT22;5217;43.960;10.954;2023-07-20T10:46:42;29.50;99.90
10344;DHT22;5217;43.960;10.954;2023-07-20T10:49:13;29.40;99.90
10344;DHT22;5217;43.960;10.954;2023-07-20T10:51:44;29.50;99.90
10344;DHT22;5217;43.960;10.954;2023-07-20T10:54:46;29.50;99.90
10344;DHT22;5217;43.960;10.954;2023-07-20T10:57:24;29.50;99.90
10344;DHT22;5217;43.960;10.954;2023-07-20T11:00:08;29.50;99.90
10344;DHT22;5217;43.960;10.954;2023-07-20T11:02:48;29.50;99.90
10344;DHT22;5217;43.960;10.954;2023-07-20T11:05:35;29.50;99.90
10344;DHT22;5217;43.960;10.954;2023-07-20T11:08:06;29.60;99.90
10344;DHT22;5217;43.960;10.954;2023-07-20T11:10:34;29.60;99.90
10344;DHT22;5217;43.960;10.954;2023-07-20T11:13:25;29.60;99.90
10344;DHT22;5217;43.960;10.954;2023-07-20T11:16:03;29.60;99.90
10344;DHT22;5217;43.960;10.954;2023-07-20T11:18:35;29.70;99.90
10344;DHT22;5217;43.960;10.954;2023-07-20T11:21:11;29.60;99.90
10344;DHT22;5217;43.960;10.954;2023-07-20T11:23:39;29.70;99.90
10344;DHT22;5217;43.960;10.954;2023-07-20T11:26:08;29.70;99.90
10344;DHT22;5217;43.960;10.954;2023-07-20T11:28:39;29.70;99.90
10344;DHT22;5217;43.960;10.954;2023-07-20T11:31:08;29.70;99.90
10344;DHT22;5217;43.960;10.954;2023-07-20T11:33:38;29.80;99.90
10344;DHT22;5217;43.960;10.954;2023-07-20T11:36:06;29.80;99.90
10344;DHT22;5217;43.960;10.954;2023-07-20T11:38:41;29.80;99.90
10344;DHT22;5217;43.960;10.954;2023-07-20T11:41:10;29.80;99.90
10344;DHT22;5217;43.960;10.954;2023-07-20T11:43:41;29.80;99.90
10344;DHT22;5217;43.960;10.954;2023-07-20T11:46:10;29.80;99.90
10344;DHT22;5217;43.960;10.954;2023-07-20T11:48:39;29.80;99.90
10344;DHT22;5217;43.960;10.954;2023-07-20T11:51:13;29.80;99.90
10344;DHT22;5217;43.960;10.954;2023-07-20T11:53:43;29.80;99.90
10344;DHT22;5217;43.960;10.954;2023-07-20T11:56:13;29.80;99.90
10344;DHT22;5217;43.960;10.954;2023-07-20T11:58:44;29.90;99.90
10344;DHT22;5217;43.960;10.954;2023-07-20T12:01:13;29.90;99.90
10344;DHT22;5217;43.960;10.954;2023-07-20T12:03:42;29.90;99.90
10344;DHT22;5217;43.960;10.954;2023-07-20T12:06:12;29.90;99.90
10344;DHT22;5217;43.960;10.954;2023-07-20T12:08:42;29.90;99.90
10344;DHT22;5217;43.960;10.954;2023-07-20T12:11:11;29.90;99.90
10344;DHT22;5217;43.960;10.954;2023-07-20T12:13:44;30.00;99.90
10344;DHT22;5217;43.960;10.954;2023-07-20T12:16:14;30.00;99.90
10344;DHT22;5217;43.960;10.954;2023-07-20T12:18:43;30.10;99.90
10344;DHT22;5217;43.960;10.954;2023-07-20T12:21:12;30.10;99.90
10344;DHT22;5217;43.960;10.954;2023-07-20T12:23:41;30.10;99.90
10344;DHT22;5217;43.960;10.954;2023-07-20T12:26:10;30.20;99.90
10344;DHT22;5217;43.960;10.954;2023-07-20T12:28:39;30.20;99.90
10344;DHT22;5217;43.960;10.954;2023-07-20T12:31:10;30.20;99.90
10344;DHT22;5217;43.960;10.954;2023-07-20T12:33:40;30.20;99.90
10344;DHT22;5217;43.960;10.954;2023-07-20T12:36:09;30.10;99.90
10344;DHT22;5217;43.960;10.954;2023-07-20T12:38:37;30.20;99.90
10344;DHT22;5217;43.960;10.954;2023-07-20T12:41:06;30.20;99.90
10344;DHT22;5217;43.960;10.954;2023-07-20T12:43:34;30.20;99.90
10344;DHT22;5217;43.960;10.954;2023-07-20T12:46:03;30.20;99.90
10344;DHT22;5217;43.960;10.954;2023-07-20T12:48:35;30.20;99.90
10344;DHT22;5217;43.960;10.954;2023-07-20T12:51:04;30.20;99.90
10344;DHT22;5217;43.960;10.954;2023-07-20T12:53:32;30.20;99.90
10344;DHT22;5217;43.960;10.954;2023-07-20T12:56:01;30.20;99.90
10344;DHT22;5217;43.960;10.954;2023-07-20T12:58:50;30.30;99.90
10344;DHT22;5217;43.960;10.954;2023-07-20T13:01:18;30.30;99.90
10344;DHT22;5217;43.960;10.954;2023-07-20T13:03:49;30.30;99.90
10344;DHT22;5217;43.960;10.954;2023-07-20T13:06:21;30.30;99.90
10344;DHT22;5217;43.960;10.954;2023-07-20T13:08:53;30.40;99.90
10344;DHT22;5217;43.960;10.954;2023-07-20T13:11:24;30.30;99.90
10344;DHT22;5217;43.960;10.954;2023-07-20T13:13:53;30.40;99.90
10344;DHT22;5217;43.960;10.954;2023-07-20T13:16:22;30.40;99.90
10344;DHT22;5217;43.960;10.954;2023-07-20T13:18:54;30.40;99.90
10344;DHT22;5217;43.960;10.954;2023-07-20T13:21:24;30.40;99.90
10344;DHT22;5217;43.960;10.954;2023-07-20T13:23:54;30.40;99.90
10344;DHT22;5217;43.960;10.954;2023-07-20T13:26:22;30.40;99.90
10344;DHT22;5217;43.960;10.954;2023-07-20T13:28:51;30.40;99.90
10344;DHT22;5217;43.960;10.954;2023-07-20T13:31:22;30.40;99.90
10344;DHT22;5217;43.960;10.954;2023-07-20T13:33:50;30.40;99.90
10344;DHT22;5217;43.960;10.954;2023-07-20T13:36:27;30.50;99.90
10344;DHT22;5217;43.960;10.954;2023-07-20T13:38:56;30.50;99.90
10344;DHT22;5217;43.960;10.954;2023-07-20T13:41:26;30.50;99.90
10344;DHT22;5217;43.960;10.954;2023-07-20T13:43:56;30.60;99.90
10344;DHT22;5217;43.960;10.954;2023-07-20T13:46:26;30.60;99.90
10344;DHT22;5217;43.960;10.954;2023-07-20T13:48:57;30.60;99.90
10344;DHT22;5217;43.960;10.954;2023-07-20T13:51:28;30.60;99.90
10344;DHT22;5217;43.960;10.954;2023-07-20T13:53:57;30.60;99.90
10344;DHT22;5217;43.960;10.954;2023-07-20T13:56:46;30.60;99.90
10344;DHT22;5217;43.960;10.954;2023-07-20T13:59:14;30.60;99.90
10344;DHT22;5217;43.960;10.954;2023-07-20T14:01:43;30.60;99.90
10344;DHT22;5217;43.960;10.954;2023-07-20T14:04:12;30.70;99.90
10344;DHT22;5217;43.960;10.954;2023-07-20T14:06:42;30.70;99.90
10344;DHT22;5217;43.960;10.954;2023-07-20T14:09:12;30.70;99.90
10344;DHT22;5217;43.960;10.954;2023-07-20T14:11:41;30.70;99.90
10344;DHT22;5217;43.960;10.954;2023-07-20T14:14:14;30.70;99.90
10344;DHT22;5217;43.960;10.954;2023-07-20T14:16:43;30.70;99.90
10344;DHT22;5217;43.960;10.954;2023-07-20T14:19:12;30.80;99.90
10344;DHT22;5217;43.960;10.954;2023-07-20T14:21:42;30.80;99.90
10344;DHT22;5217;43.960;10.954;2023-07-20T14:24:11;30.80;99.90
10344;DHT22;5217;43.960;10.954;2023-07-20T14:26:40;30.80;99.90
10344;DHT22;5217;43.960;10.954;2023-07-20T14:29:10;30.80;99.90
10344;DHT22;5217;43.960;10.954;2023-07-20T14:31:38;30.80;99.90
10344;DHT22;5217;43.960;10.954;2023-07-20T14:34:08;30.80;99.90
10344;DHT22;5217;43.960;10.954;2023-07-20T14:36:36;30.80;99.90
10344;DHT22;5217;43.960;10.954;2023-07-20T14:39:06;30.90;99.90
10344;DHT22;5217;43.960;10.954;2023-07-20T14:41:35;30.80;99.90
10344;DHT22;5217;43.960;10.954;2023-07-20T14:44:04;30.80;99.90
10344;DHT22;5217;43.960;10.954;2023-07-20T14:46:32;30.80;99.90
10344;DHT22;5217;43.960;10.954;2023-07-20T14:49:01;30.80;99.90
10344;DHT22;5217;43.960;10.954;2023-07-20T14:51:29;30.90;99.90
10344;DHT22;5217;43.960;10.954;2023-07-20T14:54:06;30.80;99.90
10344;DHT22;5217;43.960;10.954;2023-07-20T14:56:34;30.80;99.90
10344;DHT22;5217;43.960;10.954;2023-07-20T14:59:04;30.80;99.90
10344;DHT22;5217;43.960;10.954;2023-07-20T15:01:33;30.80;99.90
10344;DHT22;5217;43.960;10.954;2023-07-20T15:04:01;30.80;99.90
10344;DHT22;5217;43.960;10.954;2023-07-20T15:06:30;30.80;99.90
10344;DHT22;5217;43.960;10.954;2023-07-20T15:08:59;30.90;99.90
10344;DHT22;5217;43.960;10.954;2023-07-20T15:11:29;30.80;99.90
10344;DHT22;5217;43.960;10.954;2023-07-20T15:13:57;30.80;99.90
10344;DHT22;5217;43.960;10.954;2023-07-20T15:16:26;30.80;99.90
10344;DHT22;5217;43.960;10.954;2023-07-20T15:18:54;30.90;99.90
10344;DHT22;5217;43.960;10.954;2023-07-20T15:21:23;30.80;99.90
10344;DHT22;5217;43.960;10.954;2023-07-20T15:23:52;30.90;99.90
10344;DHT22;5217;43.960;10.954;2023-07-20T15:26:21;30.80;99.20
10344;DHT22;5217;43.960;10.954;2023-07-20T15:28:51;30.90;99.30
10344;DHT22;5217;43.960;10.954;2023-07-20T15:31:19;30.90;99.60
10344;DHT22;5217;43.960;10.954;2023-07-20T15:34:08;30.80;99.60
10344;DHT22;5217;43.960;10.954;2023-07-20T15:36:40;30.80;99.10
10344;DHT22;5217;43.960;10.954;2023-07-20T15:39:09;30.80;99.00
10344;DHT22;5217;43.960;10.954;2023-07-20T15:41:37;30.90;99.40
10344;DHT22;5217;43.960;10.954;2023-07-20T15:44:08;30.90;99.60
10344;DHT22;5217;43.960;10.954;2023-07-20T15:46:47;30.90;99.50
10344;DHT22;5217;43.960;10.954;2023-07-20T15:49:16;30.90;99.90